createdAt,value
2022-08-09T00:00:00.570Z,16.40
2022-08-09T00:02:32.944Z,16.30
2022-08-09T00:06:15.356Z,16.30
2022-08-09T00:07:50.316Z,16.20
2022-08-09T00:10:24.363Z,16.10
2022-08-09T00:12:53.331Z,16.00
2022-08-09T00:15:26.790Z,16.00
2022-08-09T00:18:11.401Z,16.00
2022-08-09T00:20:41.383Z,15.90
2022-08-09T00:23:56.287Z,15.90
2022-08-09T00:25:59.154Z,15.80
2022-08-09T00:28:34.730Z,15.70
2022-08-09T00:31:30.317Z,15.70
2022-08-09T00:33:52.087Z,15.70
2022-08-09T00:36:20.303Z,15.80
2022-08-09T00:38:50.768Z,15.80
2022-08-09T00:44:18.856Z,15.80
2022-08-09T00:44:20.354Z,15.70
2022-08-09T00:46:56.572Z,15.60
2022-08-09T00:49:30.284Z,15.60
2022-08-09T00:52:02.114Z,15.50
2022-08-09T00:54:36.488Z,15.40
2022-08-09T00:57:08.848Z,15.30
2022-08-09T00:59:41.502Z,15.20
2022-08-09T01:02:20.234Z,15.20
2022-08-09T01:04:58.751Z,15.20
2022-08-09T01:08:00.049Z,15.20
2022-08-09T01:10:35.018Z,15.20
2022-08-09T01:13:12.710Z,15.30
2022-08-09T01:15:52.629Z,15.40
2022-08-09T01:18:29.841Z,15.60
2022-08-09T01:21:12.474Z,15.70
2022-08-09T01:24:02.295Z,15.60
2022-08-09T01:26:55.797Z,15.60
2022-08-09T01:29:41.414Z,15.50
2022-08-09T01:32:32.496Z,15.50
2022-08-09T01:35:17.924Z,15.60
2022-08-09T01:38:07.858Z,15.70
2022-08-09T01:40:42.474Z,15.70
2022-08-09T01:43:12.643Z,15.60
2022-08-09T01:45:44.657Z,15.50
2022-08-09T01:48:16.422Z,15.70
2022-08-09T01:50:48.353Z,15.80
2022-08-09T01:53:20.043Z,15.80
2022-08-09T01:55:52.594Z,15.60
2022-08-09T01:58:24.752Z,15.60
2022-08-09T02:00:57.138Z,15.50
2022-08-09T02:03:25.577Z,15.50
2022-08-09T02:06:03.586Z,15.40
2022-08-09T02:08:57.274Z,15.50
2022-08-09T02:11:42.113Z,15.40
2022-08-09T02:14:26.254Z,15.40
2022-08-09T02:17:15.535Z,15.40
2022-08-09T02:19:44.564Z,15.50
2022-08-09T02:22:31.717Z,15.50
2022-08-09T02:25:15.199Z,15.50
2022-08-09T02:28:00.479Z,15.60
2022-08-09T02:30:41.518Z,15.70
2022-08-09T02:33:14.514Z,15.80
2022-08-09T02:36:01.342Z,15.80
2022-08-09T02:38:34.813Z,15.90
2022-08-09T02:41:08.416Z,15.80
2022-08-09T02:43:53.610Z,15.80
2022-08-09T02:46:27.467Z,15.50
2022-08-09T02:48:57.454Z,15.30
2022-08-09T02:51:27.211Z,15.10
2022-08-09T02:54:00.976Z,15.00
2022-08-09T02:56:31.321Z,14.90
2022-08-09T02:59:01.092Z,14.90
2022-08-09T03:01:42.585Z,14.80
2022-08-09T03:04:20.531Z,14.90
2022-08-09T03:06:55.324Z,14.90
2022-08-09T03:09:23.879Z,15.00
2022-08-09T03:12:09.836Z,15.00
2022-08-09T03:14:40.789Z,15.10
2022-08-09T03:17:16.372Z,15.40
2022-08-09T03:19:58.277Z,15.60
2022-08-09T03:22:32.120Z,15.70
2022-08-09T03:25:06.234Z,15.70
2022-08-09T03:27:51.731Z,15.50
2022-08-09T03:30:30.158Z,15.50
2022-08-09T03:33:17.456Z,15.60
2022-08-09T03:36:13.034Z,15.70
2022-08-09T03:38:41.764Z,15.80
2022-08-09T03:41:14.852Z,15.90
2022-08-09T03:44:03.326Z,15.80
2022-08-09T03:46:31.649Z,15.70
2022-08-09T03:49:09.135Z,15.70
2022-08-09T03:51:57.643Z,15.70
2022-08-09T03:54:31.391Z,15.60
2022-08-09T03:57:02.011Z,15.60
2022-08-09T03:59:43.187Z,15.70
2022-08-09T04:02:30.011Z,15.90
2022-08-09T04:05:06.530Z,16.10
2022-08-09T04:07:52.558Z,16.00
2022-08-09T04:10:28.732Z,15.90
2022-08-09T04:13:01.108Z,15.90
2022-08-09T04:15:52.400Z,16.00
2022-08-09T04:18:19.433Z,16.20
2022-08-09T04:20:51.861Z,16.20
2022-08-09T04:23:23.429Z,16.10
2022-08-09T04:25:53.652Z,16.10
2022-08-09T04:28:33.873Z,16.20
2022-08-09T04:31:10.105Z,16.30
2022-08-09T04:33:52.652Z,16.20
2022-08-09T04:36:27.650Z,16.20
2022-08-09T04:38:56.519Z,16.40
2022-08-09T04:41:32.995Z,16.50
2022-08-09T04:44:07.325Z,16.60
2022-08-09T04:46:58.932Z,16.50
2022-08-09T04:49:52.755Z,16.50
2022-08-09T04:52:26.438Z,16.70
2022-08-09T04:54:55.547Z,16.80
2022-08-09T04:57:24.012Z,16.80
2022-08-09T04:59:54.414Z,16.60
2022-08-09T05:02:22.366Z,16.60
2022-08-09T05:04:55.681Z,16.70
2022-08-09T05:07:29.291Z,16.80
2022-08-09T05:10:02.033Z,16.90
2022-08-09T05:12:31.145Z,17.00
2022-08-09T05:15:00.710Z,17.00
2022-08-09T05:18:37.862Z,16.80
2022-08-09T05:20:19.341Z,16.90
